sensor_id;sensor_type;location;lat;lon;timestamp;P1;durP1;ratioP1;P2;durP2;ratioP2
77417;SDS011;66490;51.484;0.026;2023-02-15T00:01:27;91.45;;;48.22;;
77417;SDS011;66490;51.484;0.026;2023-02-15T00:03:52;87.53;;;44.93;;
77417;SDS011;66490;51.484;0.026;2023-02-15T00:06:18;94.10;;;46.50;;
77417;SDS011;66490;51.484;0.026;2023-02-15T00:08:44;92.53;;;44.57;;
77417;SDS011;66490;51.484;0.026;2023-02-15T00:11:10;95.40;;;45.10;;
77417;SDS011;66490;51.484;0.026;2023-02-15T00:13:38;84.25;;;43.50;;
77417;SDS011;66490;51.484;0.026;2023-02-15T00:16:07;88.10;;;44.97;;
77417;SDS011;66490;51.484;0.026;2023-02-15T00:18:35;89.33;;;45.30;;
77417;SDS011;66490;51.484;0.026;2023-02-15T00:21:04;89.38;;;43.28;;
77417;SDS011;66490;51.484;0.026;2023-02-15T00:23:35;87.53;;;44.00;;
77417;SDS011;66490;51.484;0.026;2023-02-15T00:26:05;80.67;;;41.80;;
77417;SDS011;66490;51.484;0.026;2023-02-15T00:28:32;79.45;;;42.83;;
77417;SDS011;66490;51.484;0.026;2023-02-15T00:31:07;85.00;;;45.07;;
77417;SDS011;66490;51.484;0.026;2023-02-15T00:33:35;88.17;;;43.67;;
77417;SDS011;66490;51.484;0.026;2023-02-15T00:36:02;84.05;;;42.17;;
77417;SDS011;66490;51.484;0.026;2023-02-15T00:38:31;83.07;;;43.92;;
77417;SDS011;66490;51.484;0.026;2023-02-15T00:44:30;91.97;;;46.47;;
77417;SDS011;66490;51.484;0.026;2023-02-15T00:46:55;88.37;;;42.23;;
77417;SDS011;66490;51.484;0.026;2023-02-15T00:49:21;91.20;;;45.67;;
77417;SDS011;66490;51.484;0.026;2023-02-15T00:51:47;86.03;;;41.97;;
77417;SDS011;66490;51.484;0.026;2023-02-15T00:54:12;83.80;;;41.70;;
77417;SDS011;66490;51.484;0.026;2023-02-15T00:56:40;87.32;;;44.50;;
77417;SDS011;66490;51.484;0.026;2023-02-15T00:59:05;93.77;;;45.13;;
77417;SDS011;66490;51.484;0.026;2023-02-15T01:01:31;96.97;;;43.67;;
77417;SDS011;66490;51.484;0.026;2023-02-15T01:03:57;91.72;;;43.13;;
77417;SDS011;66490;51.484;0.026;2023-02-15T01:06:22;91.77;;;44.47;;
77417;SDS011;66490;51.484;0.026;2023-02-15T01:08:48;82.53;;;42.40;;
77417;SDS011;66490;51.484;0.026;2023-02-15T01:11:15;88.28;;;41.08;;
77417;SDS011;66490;51.484;0.026;2023-02-15T01:13:47;82.03;;;40.88;;
77417;SDS011;66490;51.484;0.026;2023-02-15T01:16:14;89.47;;;39.50;;
77417;SDS011;66490;51.484;0.026;2023-02-15T01:18:39;84.03;;;39.83;;
77417;SDS011;66490;51.484;0.026;2023-02-15T01:21:09;87.70;;;38.97;;
77417;SDS011;66490;51.484;0.026;2023-02-15T01:23:36;79.50;;;37.63;;
77417;SDS011;66490;51.484;0.026;2023-02-15T01:26:02;80.33;;;38.63;;
77417;SDS011;66490;51.484;0.026;2023-02-15T01:28:28;82.20;;;39.35;;
77417;SDS011;66490;51.484;0.026;2023-02-15T01:30:54;89.77;;;41.53;;
77417;SDS011;66490;51.484;0.026;2023-02-15T01:33:19;78.30;;;39.83;;
77417;SDS011;66490;51.484;0.026;2023-02-15T01:35:45;85.23;;;40.97;;
77417;SDS011;66490;51.484;0.026;2023-02-15T01:38:11;82.03;;;40.20;;
77417;SDS011;66490;51.484;0.026;2023-02-15T01:40:37;72.93;;;39.25;;
77417;SDS011;66490;51.484;0.026;2023-02-15T01:43:07;83.77;;;40.70;;
77417;SDS011;66490;51.484;0.026;2023-02-15T01:45:35;84.32;;;40.08;;
77417;SDS011;66490;51.484;0.026;2023-02-15T01:48:03;90.30;;;42.43;;
77417;SDS011;66490;51.484;0.026;2023-02-15T01:50:35;78.50;;;40.90;;
77417;SDS011;66490;51.484;0.026;2023-02-15T01:53:08;85.55;;;38.50;;
77417;SDS011;66490;51.484;0.026;2023-02-15T01:55:41;89.90;;;44.47;;
77417;SDS011;66490;51.484;0.026;2023-02-15T01:58:11;84.57;;;41.03;;
77417;SDS011;66490;51.484;0.026;2023-02-15T02:00:36;79.57;;;38.93;;
77417;SDS011;66490;51.484;0.026;2023-02-15T02:03:02;80.63;;;37.63;;
77417;SDS011;66490;51.484;0.026;2023-02-15T02:05:28;77.85;;;38.50;;
77417;SDS011;66490;51.484;0.026;2023-02-15T02:07:56;75.80;;;39.85;;
77417;SDS011;66490;51.484;0.026;2023-02-15T02:10:24;76.38;;;39.80;;
77417;SDS011;66490;51.484;0.026;2023-02-15T02:12:52;75.30;;;37.30;;
77417;SDS011;66490;51.484;0.026;2023-02-15T02:15:21;85.73;;;39.00;;
77417;SDS011;66490;51.484;0.026;2023-02-15T02:18:04;82.43;;;38.85;;
77417;SDS011;66490;51.484;0.026;2023-02-15T02:32:09;82.15;;;39.65;;
77417;SDS011;66490;51.484;0.026;2023-02-15T02:37:35;97.85;;;41.80;;
77417;SDS011;66490;51.484;0.026;2023-02-15T02:40:16;96.63;;;42.60;;
77417;SDS011;66490;51.484;0.026;2023-02-15T02:42:49;92.63;;;40.17;;
77417;SDS011;66490;51.484;0.026;2023-02-15T02:45:28;95.70;;;42.38;;
77417;SDS011;66490;51.484;0.026;2023-02-15T02:48:05;94.93;;;42.90;;
77417;SDS011;66490;51.484;0.026;2023-02-15T02:50:38;96.80;;;40.92;;
77417;SDS011;66490;51.484;0.026;2023-02-15T02:53:05;92.45;;;42.60;;
77417;SDS011;66490;51.484;0.026;2023-02-15T02:55:37;89.70;;;41.03;;
77417;SDS011;66490;51.484;0.026;2023-02-15T02:58:11;99.30;;;42.72;;
77417;SDS011;66490;51.484;0.026;2023-02-15T03:03:47;86.82;;;39.70;;
77417;SDS011;66490;51.484;0.026;2023-02-15T03:06:17;83.93;;;42.85;;
77417;SDS011;66490;51.484;0.026;2023-02-15T03:08:47;80.60;;;39.70;;
77417;SDS011;66490;51.484;0.026;2023-02-15T03:11:15;93.40;;;43.40;;
77417;SDS011;66490;51.484;0.026;2023-02-15T03:13:41;89.55;;;41.28;;
77417;SDS011;66490;51.484;0.026;2023-02-15T03:16:08;86.30;;;40.40;;
77417;SDS011;66490;51.484;0.026;2023-02-15T03:18:53;82.47;;;40.13;;
77417;SDS011;66490;51.484;0.026;2023-02-15T03:24:23;88.03;;;43.30;;
77417;SDS011;66490;51.484;0.026;2023-02-15T03:26:57;89.32;;;41.85;;
77417;SDS011;66490;51.484;0.026;2023-02-15T03:29:23;81.53;;;39.03;;
77417;SDS011;66490;51.484;0.026;2023-02-15T03:31:53;88.15;;;42.58;;
77417;SDS011;66490;51.484;0.026;2023-02-15T03:34:21;88.70;;;41.13;;
77417;SDS011;66490;51.484;0.026;2023-02-15T03:42:13;76.28;;;37.83;;
77417;SDS011;66490;51.484;0.026;2023-02-15T03:45:01;83.05;;;39.97;;
77417;SDS011;66490;51.484;0.026;2023-02-15T03:47:35;82.90;;;38.33;;
77417;SDS011;66490;51.484;0.026;2023-02-15T03:50:09;86.00;;;39.78;;
77417;SDS011;66490;51.484;0.026;2023-02-15T03:52:59;86.00;;;41.17;;
77417;SDS011;66490;51.484;0.026;2023-02-15T03:55:27;85.10;;;40.25;;
77417;SDS011;66490;51.484;0.026;2023-02-15T03:57:53;92.20;;;42.73;;
77417;SDS011;66490;51.484;0.026;2023-02-15T04:00:37;83.30;;;39.78;;
77417;SDS011;66490;51.484;0.026;2023-02-15T04:05:56;83.50;;;39.85;;
77417;SDS011;66490;51.484;0.026;2023-02-15T04:08:22;83.97;;;38.77;;
77417;SDS011;66490;51.484;0.026;2023-02-15T04:11:08;81.88;;;38.45;;
77417;SDS011;66490;51.484;0.026;2023-02-15T04:13:33;89.53;;;42.03;;
77417;SDS011;66490;51.484;0.026;2023-02-15T04:15:58;89.77;;;41.33;;
77417;SDS011;66490;51.484;0.026;2023-02-15T04:18:31;82.75;;;37.55;;
77417;SDS011;66490;51.484;0.026;2023-02-15T04:21:20;86.20;;;42.15;;
77417;SDS011;66490;51.484;0.026;2023-02-15T04:24:06;93.97;;;42.42;;
77417;SDS011;66490;51.484;0.026;2023-02-15T04:26:50;94.43;;;43.42;;
77417;SDS011;66490;51.484;0.026;2023-02-15T04:29:20;89.20;;;41.90;;
77417;SDS011;66490;51.484;0.026;2023-02-15T04:31:46;94.28;;;43.15;;
77417;SDS011;66490;51.484;0.026;2023-02-15T04:34:12;84.13;;;40.50;;
77417;SDS011;66490;51.484;0.026;2023-02-15T04:36:38;107.78;;;46.53;;
77417;SDS011;66490;51.484;0.026;2023-02-15T04:39:04;97.53;;;41.97;;
77417;SDS011;66490;51.484;0.026;2023-02-15T04:41:31;95.10;;;42.72;;
77417;SDS011;66490;51.484;0.026;2023-02-15T04:43:57;91.43;;;43.67;;
77417;SDS011;66490;51.484;0.026;2023-02-15T04:46:23;95.20;;;43.30;;
77417;SDS011;66490;51.484;0.026;2023-02-15T04:48:48;89.50;;;41.97;;
77417;SDS011;66490;51.484;0.026;2023-02-15T04:51:14;95.57;;;43.93;;
77417;SDS011;66490;51.484;0.026;2023-02-15T04:53:39;100.30;;;42.33;;
77417;SDS011;66490;51.484;0.026;2023-02-15T04:56:05;93.05;;;43.50;;
77417;SDS011;66490;51.484;0.026;2023-02-15T04:58:30;95.27;;;43.03;;
77417;SDS011;66490;51.484;0.026;2023-02-15T05:00:56;102.40;;;43.25;;
77417;SDS011;66490;51.484;0.026;2023-02-15T05:03:23;100.10;;;45.20;;
77417;SDS011;66490;51.484;0.026;2023-02-15T05:05:48;108.17;;;45.77;;
77417;SDS011;66490;51.484;0.026;2023-02-15T05:08:14;115.25;;;47.35;;
77417;SDS011;66490;51.484;0.026;2023-02-15T05:10:40;123.40;;;48.93;;
77417;SDS011;66490;51.484;0.026;2023-02-15T05:13:05;112.97;;;44.70;;
77417;SDS011;66490;51.484;0.026;2023-02-15T05:15:31;105.80;;;44.53;;
77417;SDS011;66490;51.484;0.026;2023-02-15T05:17:56;106.70;;;45.23;;
77417;SDS011;66490;51.484;0.026;2023-02-15T05:20:22;103.10;;;44.42;;
77417;SDS011;66490;51.484;0.026;2023-02-15T05:22:48;98.03;;;44.00;;
77417;SDS011;66490;51.484;0.026;2023-02-15T05:25:13;108.72;;;43.67;;
77417;SDS011;66490;51.484;0.026;2023-02-15T05:27:57;104.40;;;47.10;;
77417;SDS011;66490;51.484;0.026;2023-02-15T05:30:43;100.93;;;42.83;;
77417;SDS011;66490;51.484;0.026;2023-02-15T05:33:08;108.15;;;46.50;;
77417;SDS011;66490;51.484;0.026;2023-02-15T05:35:35;116.00;;;46.40;;
77417;SDS011;66490;51.484;0.026;2023-02-15T05:38:00;116.78;;;48.83;;
77417;SDS011;66490;51.484;0.026;2023-02-15T05:40:26;105.77;;;47.20;;
77417;SDS011;66490;51.484;0.026;2023-02-15T05:42:52;113.05;;;46.92;;
77417;SDS011;66490;51.484;0.026;2023-02-15T05:45:17;128.73;;;50.47;;
77417;SDS011;66490;51.484;0.026;2023-02-15T05:47:43;127.03;;;47.88;;
77417;SDS011;66490;51.484;0.026;2023-02-15T05:50:09;124.57;;;48.47;;
77417;SDS011;66490;51.484;0.026;2023-02-15T05:52:36;112.93;;;45.58;;
77417;SDS011;66490;51.484;0.026;2023-02-15T05:55:02;109.03;;;45.63;;
77417;SDS011;66490;51.484;0.026;2023-02-15T05:57:29;111.23;;;45.97;;
77417;SDS011;66490;51.484;0.026;2023-02-15T05:59:55;127.85;;;50.72;;
77417;SDS011;66490;51.484;0.026;2023-02-15T06:02:21;112.63;;;49.08;;
77417;SDS011;66490;51.484;0.026;2023-02-15T06:04:47;129.33;;;51.90;;
77417;SDS011;66490;51.484;0.026;2023-02-15T06:07:12;125.75;;;50.80;;
77417;SDS011;66490;51.484;0.026;2023-02-15T06:09:38;118.80;;;48.20;;
77417;SDS011;66490;51.484;0.026;2023-02-15T06:12:06;111.23;;;48.33;;
77417;SDS011;66490;51.484;0.026;2023-02-15T06:14:32;118.03;;;46.10;;
77417;SDS011;66490;51.484;0.026;2023-02-15T06:16:57;115.70;;;45.05;;
77417;SDS011;66490;51.484;0.026;2023-02-15T06:19:23;103.37;;;43.57;;
77417;SDS011;66490;51.484;0.026;2023-02-15T06:21:49;96.07;;;45.53;;
77417;SDS011;66490;51.484;0.026;2023-02-15T06:24:15;99.75;;;44.30;;
77417;SDS011;66490;51.484;0.026;2023-02-15T06:26:40;101.97;;;45.50;;
77417;SDS011;66490;51.484;0.026;2023-02-15T06:29:06;106.10;;;43.30;;
77417;SDS011;66490;51.484;0.026;2023-02-15T06:31:32;114.20;;;49.63;;
77417;SDS011;66490;51.484;0.026;2023-02-15T06:33:57;110.82;;;45.95;;
77417;SDS011;66490;51.484;0.026;2023-02-15T06:36:29;108.28;;;47.20;;
77417;SDS011;66490;51.484;0.026;2023-02-15T06:38:55;105.93;;;44.77;;
77417;SDS011;66490;51.484;0.026;2023-02-15T06:41:21;100.18;;;43.97;;
77417;SDS011;66490;51.484;0.026;2023-02-15T06:43:46;96.47;;;42.03;;
77417;SDS011;66490;51.484;0.026;2023-02-15T06:46:15;101.53;;;43.30;;
77417;SDS011;66490;51.484;0.026;2023-02-15T06:48:41;119.15;;;49.55;;
77417;SDS011;66490;51.484;0.026;2023-02-15T06:51:07;116.63;;;48.60;;
77417;SDS011;66490;51.484;0.026;2023-02-15T06:53:32;113.05;;;49.90;;
77417;SDS011;66490;51.484;0.026;2023-02-15T06:56:01;109.60;;;47.23;;
77417;SDS011;66490;51.484;0.026;2023-02-15T06:58:28;120.75;;;52.08;;
77417;SDS011;66490;51.484;0.026;2023-02-15T07:00:53;145.20;;;52.17;;
77417;SDS011;66490;51.484;0.026;2023-02-15T07:03:19;132.63;;;49.00;;
77417;SDS011;66490;51.484;0.026;2023-02-15T07:05:47;143.13;;;54.43;;
77417;SDS011;66490;51.484;0.026;2023-02-15T07:08:13;142.40;;;51.67;;
77417;SDS011;66490;51.484;0.026;2023-02-15T07:10:39;117.80;;;49.60;;
77417;SDS011;66490;51.484;0.026;2023-02-15T07:13:09;116.13;;;48.43;;
77417;SDS011;66490;51.484;0.026;2023-02-15T07:15:34;129.00;;;50.80;;
77417;SDS011;66490;51.484;0.026;2023-02-15T07:18:00;140.00;;;53.10;;
77417;SDS011;66490;51.484;0.026;2023-02-15T07:20:25;129.17;;;53.10;;
77417;SDS011;66490;51.484;0.026;2023-02-15T07:22:51;133.93;;;54.25;;
77417;SDS011;66490;51.484;0.026;2023-02-15T07:25:16;119.27;;;49.33;;
77417;SDS011;66490;51.484;0.026;2023-02-15T07:27:42;131.45;;;52.42;;
77417;SDS011;66490;51.484;0.026;2023-02-15T07:30:10;137.63;;;55.97;;
77417;SDS011;66490;51.484;0.026;2023-02-15T07:32:38;126.93;;;52.65;;
77417;SDS011;66490;51.484;0.026;2023-02-15T07:35:23;123.78;;;50.67;;
77417;SDS011;66490;51.484;0.026;2023-02-15T07:37:49;128.07;;;51.63;;
77417;SDS011;66490;51.484;0.026;2023-02-15T07:40:15;123.13;;;52.23;;
77417;SDS011;66490;51.484;0.026;2023-02-15T07:42:40;125.67;;;51.67;;
77417;SDS011;66490;51.484;0.026;2023-02-15T07:45:06;119.00;;;49.05;;
77417;SDS011;66490;51.484;0.026;2023-02-15T07:47:32;122.83;;;50.60;;
77417;SDS011;66490;51.484;0.026;2023-02-15T07:49:57;127.43;;;51.10;;
77417;SDS011;66490;51.484;0.026;2023-02-15T07:52:22;118.20;;;49.27;;
77417;SDS011;66490;51.484;0.026;2023-02-15T07:54:48;130.93;;;50.60;;
77417;SDS011;66490;51.484;0.026;2023-02-15T07:57:13;134.93;;;50.00;;
77417;SDS011;66490;51.484;0.026;2023-02-15T07:59:39;147.98;;;55.65;;
77417;SDS011;66490;51.484;0.026;2023-02-15T08:02:08;140.93;;;56.33;;
77417;SDS011;66490;51.484;0.026;2023-02-15T08:04:35;159.25;;;61.28;;
77417;SDS011;66490;51.484;0.026;2023-02-15T08:07:00;150.30;;;57.63;;
77417;SDS011;66490;51.484;0.026;2023-02-15T08:09:26;167.90;;;59.53;;
77417;SDS011;66490;51.484;0.026;2023-02-15T08:11:51;149.10;;;58.07;;
77417;SDS011;66490;51.484;0.026;2023-02-15T08:14:17;148.75;;;59.03;;
77417;SDS011;66490;51.484;0.026;2023-02-15T08:16:51;154.50;;;56.50;;
77417;SDS011;66490;51.484;0.026;2023-02-15T08:19:26;151.88;;;57.30;;
77417;SDS011;66490;51.484;0.026;2023-02-15T08:21:54;143.20;;;57.53;;
77417;SDS011;66490;51.484;0.026;2023-02-15T08:24:22;125.25;;;55.15;;
77417;SDS011;66490;51.484;0.026;2023-02-15T08:26:49;110.43;;;51.67;;
77417;SDS011;66490;51.484;0.026;2023-02-15T08:29:16;92.63;;;45.50;;
77417;SDS011;66490;51.484;0.026;2023-02-15T08:31:43;88.07;;;43.25;;
77417;SDS011;66490;51.484;0.026;2023-02-15T08:34:09;86.72;;;42.65;;
77417;SDS011;66490;51.484;0.026;2023-02-15T08:36:38;76.10;;;38.25;;
77417;SDS011;66490;51.484;0.026;2023-02-15T08:39:04;72.47;;;37.33;;
77417;SDS011;66490;51.484;0.026;2023-02-15T08:41:32;72.20;;;38.13;;
77417;SDS011;66490;51.484;0.026;2023-02-15T08:44:00;69.88;;;37.70;;
77417;SDS011;66490;51.484;0.026;2023-02-15T08:46:28;65.13;;;35.03;;
77417;SDS011;66490;51.484;0.026;2023-02-15T08:48:55;67.40;;;35.28;;
77417;SDS011;66490;51.484;0.026;2023-02-15T08:51:22;63.42;;;34.30;;
77417;SDS011;66490;51.484;0.026;2023-02-15T08:53:52;61.50;;;33.20;;
77417;SDS011;66490;51.484;0.026;2023-02-15T08:56:20;58.47;;;33.40;;
77417;SDS011;66490;51.484;0.026;2023-02-15T08:58:47;62.90;;;32.63;;
77417;SDS011;66490;51.484;0.026;2023-02-15T09:01:17;61.13;;;33.55;;
77417;SDS011;66490;51.484;0.026;2023-02-15T09:03:45;56.33;;;32.13;;
77417;SDS011;66490;51.484;0.026;2023-02-15T09:06:12;57.13;;;31.80;;
77417;SDS011;66490;51.484;0.026;2023-02-15T09:08:38;58.90;;;30.85;;
77417;SDS011;66490;51.484;0.026;2023-02-15T09:11:05;52.97;;;30.65;;
77417;SDS011;66490;51.484;0.026;2023-02-15T09:13:32;54.95;;;30.70;;
77417;SDS011;66490;51.484;0.026;2023-02-15T09:16:01;60.30;;;29.67;;
77417;SDS011;66490;51.484;0.026;2023-02-15T09:18:29;52.60;;;29.67;;
77417;SDS011;66490;51.484;0.026;2023-02-15T09:20:56;50.03;;;28.98;;
77417;SDS011;66490;51.484;0.026;2023-02-15T09:23:21;50.80;;;27.23;;
77417;SDS011;66490;51.484;0.026;2023-02-15T09:25:47;50.43;;;27.03;;
77417;SDS011;66490;51.484;0.026;2023-02-15T09:28:12;50.08;;;28.27;;
77417;SDS011;66490;51.484;0.026;2023-02-15T09:30:38;44.27;;;25.13;;
77417;SDS011;66490;51.484;0.026;2023-02-15T09:33:03;45.00;;;26.73;;
77417;SDS011;66490;51.484;0.026;2023-02-15T09:35:29;47.00;;;28.60;;
77417;SDS011;66490;51.484;0.026;2023-02-15T09:37:54;44.92;;;25.58;;
77417;SDS011;66490;51.484;0.026;2023-02-15T09:40:20;45.45;;;26.00;;
77417;SDS011;66490;51.484;0.026;2023-02-15T09:42:59;44.40;;;24.77;;
77417;SDS011;66490;51.484;0.026;2023-02-15T09:46:03;41.67;;;23.38;;
77417;SDS011;66490;51.484;0.026;2023-02-15T09:48:42;41.25;;;24.38;;
77417;SDS011;66490;51.484;0.026;2023-02-15T09:57:17;41.33;;;23.73;;
77417;SDS011;66490;51.484;0.026;2023-02-15T10:11:07;39.47;;;22.83;;
77417;SDS011;66490;51.484;0.026;2023-02-15T10:14:04;43.25;;;23.63;;
77417;SDS011;66490;51.484;0.026;2023-02-15T10:28:06;39.75;;;22.55;;
77417;SDS011;66490;51.484;0.026;2023-02-15T10:30:46;38.25;;;23.52;;
77417;SDS011;66490;51.484;0.026;2023-02-15T10:45:49;36.58;;;21.00;;
77417;SDS011;66490;51.484;0.026;2023-02-15T10:56:52;36.47;;;21.20;;
77417;SDS011;66490;51.484;0.026;2023-02-15T11:08:23;40.00;;;20.90;;
77417;SDS011;66490;51.484;0.026;2023-02-15T11:10:51;32.65;;;18.27;;
77417;SDS011;66490;51.484;0.026;2023-02-15T11:13:21;33.28;;;18.58;;
77417;SDS011;66490;51.484;0.026;2023-02-15T11:15:53;32.20;;;18.83;;
77417;SDS011;66490;51.484;0.026;2023-02-15T11:18:32;31.55;;;18.23;;
77417;SDS011;66490;51.484;0.026;2023-02-15T11:21:11;32.90;;;19.87;;
77417;SDS011;66490;51.484;0.026;2023-02-15T11:23:45;27.83;;;17.95;;
77417;SDS011;66490;51.484;0.026;2023-02-15T11:40:14;34.13;;;16.50;;
77417;SDS011;66490;51.484;0.026;2023-02-15T11:42:53;29.23;;;16.05;;
77417;SDS011;66490;51.484;0.026;2023-02-15T11:47:59;26.60;;;15.07;;
77417;SDS011;66490;51.484;0.026;2023-02-15T11:50:30;24.73;;;14.32;;
77417;SDS011;66490;51.484;0.026;2023-02-15T11:53:16;23.77;;;13.18;;
77417;SDS011;66490;51.484;0.026;2023-02-15T11:55:46;28.08;;;14.13;;
77417;SDS011;66490;51.484;0.026;2023-02-15T12:00:42;22.33;;;14.33;;
77417;SDS011;66490;51.484;0.026;2023-02-15T12:03:24;22.20;;;13.40;;
77417;SDS011;66490;51.484;0.026;2023-02-15T12:05:58;25.02;;;15.13;;
77417;SDS011;66490;51.484;0.026;2023-02-15T12:08:40;29.35;;;14.00;;
77417;SDS011;66490;51.484;0.026;2023-02-15T12:11:12;24.63;;;13.10;;
77417;SDS011;66490;51.484;0.026;2023-02-15T12:13:55;21.73;;;12.37;;
77417;SDS011;66490;51.484;0.026;2023-02-15T12:16:21;23.20;;;12.50;;
77417;SDS011;66490;51.484;0.026;2023-02-15T12:18:47;34.10;;;14.05;;
77417;SDS011;66490;51.484;0.026;2023-02-15T12:21:24;23.73;;;13.40;;
77417;SDS011;66490;51.484;0.026;2023-02-15T12:23:56;22.00;;;12.88;;
77417;SDS011;66490;51.484;0.026;2023-02-15T12:28:52;18.65;;;10.55;;
77417;SDS011;66490;51.484;0.026;2023-02-15T12:36:52;20.20;;;11.65;;
77417;SDS011;66490;51.484;0.026;2023-02-15T12:39:24;21.52;;;11.77;;
77417;SDS011;66490;51.484;0.026;2023-02-15T12:44:40;18.10;;;11.50;;
77417;SDS011;66490;51.484;0.026;2023-02-15T12:47:19;20.43;;;10.03;;
77417;SDS011;66490;51.484;0.026;2023-02-15T12:49:45;18.65;;;9.77;;
77417;SDS011;66490;51.484;0.026;2023-02-15T12:52:36;19.55;;;9.80;;
77417;SDS011;66490;51.484;0.026;2023-02-15T12:55:17;21.83;;;10.73;;
77417;SDS011;66490;51.484;0.026;2023-02-15T12:57:43;24.08;;;11.48;;
77417;SDS011;66490;51.484;0.026;2023-02-15T13:02:47;19.98;;;10.68;;
77417;SDS011;66490;51.484;0.026;2023-02-15T13:05:18;17.23;;;11.52;;
77417;SDS011;66490;51.484;0.026;2023-02-15T13:08:12;17.33;;;10.07;;
77417;SDS011;66490;51.484;0.026;2023-02-15T13:10:51;20.42;;;9.40;;
77417;SDS011;66490;51.484;0.026;2023-02-15T13:13:21;20.10;;;9.20;;
77417;SDS011;66490;51.484;0.026;2023-02-15T13:15:53;15.80;;;9.20;;
77417;SDS011;66490;51.484;0.026;2023-02-15T13:18:43;21.20;;;8.98;;
77417;SDS011;66490;51.484;0.026;2023-02-15T13:21:13;16.13;;;9.07;;
77417;SDS011;66490;51.484;0.026;2023-02-15T13:23:48;13.93;;;7.97;;
77417;SDS011;66490;51.484;0.026;2023-02-15T13:26:26;18.42;;;8.20;;
77417;SDS011;66490;51.484;0.026;2023-02-15T13:28:57;18.52;;;8.55;;
77417;SDS011;66490;51.484;0.026;2023-02-15T13:31:30;17.40;;;8.25;;
77417;SDS011;66490;51.484;0.026;2023-02-15T13:34:00;13.10;;;7.30;;
77417;SDS011;66490;51.484;0.026;2023-02-15T13:41:46;16.50;;;7.82;;
77417;SDS011;66490;51.484;0.026;2023-02-15T13:44:51;16.17;;;7.57;;
77417;SDS011;66490;51.484;0.026;2023-02-15T13:47:26;17.27;;;7.57;;
77417;SDS011;66490;51.484;0.026;2023-02-15T13:55:56;17.40;;;6.80;;
77417;SDS011;66490;51.484;0.026;2023-02-15T13:58:44;15.25;;;7.00;;
77417;SDS011;66490;51.484;0.026;2023-02-15T14:06:40;13.02;;;5.93;;
77417;SDS011;66490;51.484;0.026;2023-02-15T14:15:01;17.10;;;6.20;;
77417;SDS011;66490;51.484;0.026;2023-02-15T14:20:25;12.98;;;5.30;;
77417;SDS011;66490;51.484;0.026;2023-02-15T14:26:26;13.50;;;5.93;;
77417;SDS011;66490;51.484;0.026;2023-02-15T14:29:20;17.03;;;6.10;;
77417;SDS011;66490;51.484;0.026;2023-02-15T14:35:22;12.75;;;6.15;;
77417;SDS011;66490;51.484;0.026;2023-02-15T14:40:57;16.27;;;6.22;;
77417;SDS011;66490;51.484;0.026;2023-02-15T14:49:22;18.30;;;6.82;;
77417;SDS011;66490;51.484;0.026;2023-02-15T14:56:41;15.43;;;6.17;;
77417;SDS011;66490;51.484;0.026;2023-02-15T14:59:14;14.57;;;6.45;;
77417;SDS011;66490;51.484;0.026;2023-02-15T15:02:01;16.05;;;6.25;;
77417;SDS011;66490;51.484;0.026;2023-02-15T15:04:39;15.35;;;6.10;;
77417;SDS011;66490;51.484;0.026;2023-02-15T15:09:42;15.48;;;6.03;;
77417;SDS011;66490;51.484;0.026;2023-02-15T15:14:52;13.15;;;6.00;;
77417;SDS011;66490;51.484;0.026;2023-02-15T15:19:58;14.03;;;6.03;;
77417;SDS011;66490;51.484;0.026;2023-02-15T15:22:33;14.27;;;5.43;;
77417;SDS011;66490;51.484;0.026;2023-02-15T15:25:03;16.13;;;5.63;;
77417;SDS011;66490;51.484;0.026;2023-02-15T15:40:35;16.08;;;6.10;;
77417;SDS011;66490;51.484;0.026;2023-02-15T15:43:16;13.27;;;5.65;;
77417;SDS011;66490;51.484;0.026;2023-02-15T15:48:59;12.40;;;5.85;;
77417;SDS011;66490;51.484;0.026;2023-02-15T15:51:31;15.77;;;6.32;;
77417;SDS011;66490;51.484;0.026;2023-02-15T15:53:58;15.95;;;5.85;;
77417;SDS011;66490;51.484;0.026;2023-02-15T15:56:27;14.45;;;6.32;;
77417;SDS011;66490;51.484;0.026;2023-02-15T15:59:00;12.13;;;5.73;;
77417;SDS011;66490;51.484;0.026;2023-02-15T16:01:42;12.90;;;5.60;;
77417;SDS011;66490;51.484;0.026;2023-02-15T16:04:13;10.85;;;5.90;;
77417;SDS011;66490;51.484;0.026;2023-02-15T16:06:49;12.27;;;5.50;;
77417;SDS011;66490;51.484;0.026;2023-02-15T16:09:21;16.83;;;6.10;;
77417;SDS011;66490;51.484;0.026;2023-02-15T16:11:52;18.73;;;6.13;;
77417;SDS011;66490;51.484;0.026;2023-02-15T16:17:02;14.48;;;5.82;;
77417;SDS011;66490;51.484;0.026;2023-02-15T16:19:32;15.98;;;5.75;;
77417;SDS011;66490;51.484;0.026;2023-02-15T16:22:01;10.00;;;5.80;;
77417;SDS011;66490;51.484;0.026;2023-02-15T16:24:35;10.83;;;5.77;;
77417;SDS011;66490;51.484;0.026;2023-02-15T16:29:39;14.57;;;5.93;;
77417;SDS011;66490;51.484;0.026;2023-02-15T16:37:24;12.23;;;5.85;;
77417;SDS011;66490;51.484;0.026;2023-02-15T16:39:53;12.23;;;6.28;;
77417;SDS011;66490;51.484;0.026;2023-02-15T16:42:20;22.20;;;6.30;;
77417;SDS011;66490;51.484;0.026;2023-02-15T16:45:12;17.30;;;6.20;;
77417;SDS011;66490;51.484;0.026;2023-02-15T16:47:42;13.38;;;6.13;;
77417;SDS011;66490;51.484;0.026;2023-02-15T16:50:25;15.32;;;6.38;;
77417;SDS011;66490;51.484;0.026;2023-02-15T16:52:56;11.77;;;6.38;;
77417;SDS011;66490;51.484;0.026;2023-02-15T16:55:39;12.03;;;6.30;;
77417;SDS011;66490;51.484;0.026;2023-02-15T16:58:06;15.43;;;6.07;;
77417;SDS011;66490;51.484;0.026;2023-02-15T17:00:39;16.15;;;6.88;;
77417;SDS011;66490;51.484;0.026;2023-02-15T17:05:45;12.98;;;6.72;;
77417;SDS011;66490;51.484;0.026;2023-02-15T17:16:36;13.65;;;7.10;;
77417;SDS011;66490;51.484;0.026;2023-02-15T17:21:52;15.30;;;6.63;;
77417;SDS011;66490;51.484;0.026;2023-02-15T17:24:24;16.77;;;7.85;;
77417;SDS011;66490;51.484;0.026;2023-02-15T17:26:59;16.40;;;7.75;;
77417;SDS011;66490;51.484;0.026;2023-02-15T17:29:33;17.35;;;8.07;;
77417;SDS011;66490;51.484;0.026;2023-02-15T17:32:05;17.15;;;8.57;;
77417;SDS011;66490;51.484;0.026;2023-02-15T17:34:42;17.73;;;7.50;;
77417;SDS011;66490;51.484;0.026;2023-02-15T17:37:25;14.57;;;7.93;;
77417;SDS011;66490;51.484;0.026;2023-02-15T17:39:56;17.85;;;9.13;;
77417;SDS011;66490;51.484;0.026;2023-02-15T17:42:22;16.20;;;7.97;;
77417;SDS011;66490;51.484;0.026;2023-02-15T17:44:48;18.13;;;8.27;;
77417;SDS011;66490;51.484;0.026;2023-02-15T17:47:18;20.73;;;9.30;;
77417;SDS011;66490;51.484;0.026;2023-02-15T17:49:46;21.65;;;8.40;;
77417;SDS011;66490;51.484;0.026;2023-02-15T17:52:14;14.77;;;8.40;;
77417;SDS011;66490;51.484;0.026;2023-02-15T17:54:41;16.77;;;8.27;;
77417;SDS011;66490;51.484;0.026;2023-02-15T17:57:26;16.98;;;9.27;;
77417;SDS011;66490;51.484;0.026;2023-02-15T17:59:53;16.20;;;8.38;;
77417;SDS011;66490;51.484;0.026;2023-02-15T18:02:40;15.63;;;9.02;;
77417;SDS011;66490;51.484;0.026;2023-02-15T18:05:25;15.50;;;8.27;;
77417;SDS011;66490;51.484;0.026;2023-02-15T18:08:12;17.13;;;8.00;;
77417;SDS011;66490;51.484;0.026;2023-02-15T18:10:58;17.17;;;8.43;;
77417;SDS011;66490;51.484;0.026;2023-02-15T18:13:49;16.90;;;7.90;;
77417;SDS011;66490;51.484;0.026;2023-02-15T18:16:20;18.42;;;8.93;;
77417;SDS011;66490;51.484;0.026;2023-02-15T18:18:48;18.85;;;9.15;;